sensor_id;sensor_type;location;lat;lon;timestamp;P1;durP1;ratioP1;P2;durP2;ratioP2
15504;SDS011;7854;52.184;5.942;2022-10-28T00:03:01;7;;;6;;
15504;SDS011;7854;52.184;5.942;2022-10-28T00:03:01;5;;;5;;
15504;SDS011;7854;52.184;5.942;2022-10-28T00:04:58;8;;;5;;
15504;SDS011;7854;52.184;5.942;2022-10-28T00:07:13;10;;;4;;
15504;SDS011;7854;52.184;5.942;2022-10-28T00:09:27;13;;;5;;
15504;SDS011;7854;52.184;5.942;2022-10-28T00:11:42;6;;;4;;
15504;SDS011;7854;52.184;5.942;2022-10-28T00:13:57;6;;;4;;
15504;SDS011;7854;52.184;5.942;2022-10-28T00:16:12;5;;;5;;
15504;SDS011;7854;52.184;5.942;2022-10-28T00:18:25;17;;;6;;
15504;SDS011;7854;52.184;5.942;2022-10-28T00:20:39;12;;;5;;
15504;SDS011;7854;52.184;5.942;2022-10-28T00:22:54;13;;;5;;
15504;SDS011;7854;52.184;5.942;2022-10-28T00:25:09;5;;;4;;
15504;SDS011;7854;52.184;5.942;2022-10-28T00:27:23;6;;;5;;
15504;SDS011;7854;52.184;5.942;2022-10-28T00:29:37;8;;;4;;
15504;SDS011;7854;52.184;5.942;2022-10-28T00:31:52;8;;;7;;
15504;SDS011;7854;52.184;5.942;2022-10-28T00:34:08;8;;;5;;
15504;SDS011;7854;52.184;5.942;2022-10-28T00:36:21;4;;;3;;
15504;SDS011;7854;52.184;5.942;2022-10-28T00:38:35;5;;;5;;
15504;SDS011;7854;52.184;5.942;2022-10-28T00:40:50;7;;;6;;
15504;SDS011;7854;52.184;5.942;2022-10-28T00:43:04;6;;;6;;
15504;SDS011;7854;52.184;5.942;2022-10-28T00:45:18;5;;;5;;
15504;SDS011;7854;52.184;5.942;2022-10-28T00:47:34;6;;;6;;
15504;SDS011;7854;52.184;5.942;2022-10-28T00:49:46;8;;;7;;
15504;SDS011;7854;52.184;5.942;2022-10-28T00:52:01;5;;;5;;
15504;SDS011;7854;52.184;5.942;2022-10-28T00:54:15;6;;;5;;
15504;SDS011;7854;52.184;5.942;2022-10-28T00:56:30;6;;;5;;
15504;SDS011;7854;52.184;5.942;2022-10-28T00:58:44;6;;;5;;
15504;SDS011;7854;52.184;5.942;2022-10-28T01:00:58;5;;;5;;
15504;SDS011;7854;52.184;5.942;2022-10-28T01:03:13;6;;;5;;
15504;SDS011;7854;52.184;5.942;2022-10-28T01:05:28;5;;;4;;
15504;SDS011;7854;52.184;5.942;2022-10-28T01:07:42;7;;;5;;
15504;SDS011;7854;52.184;5.942;2022-10-28T01:09:56;6;;;5;;
15504;SDS011;7854;52.184;5.942;2022-10-28T01:12:13;6;;;5;;
15504;SDS011;7854;52.184;5.942;2022-10-28T01:14:29;5;;;5;;
15504;SDS011;7854;52.184;5.942;2022-10-28T01:16:41;6;;;5;;
15504;SDS011;7854;52.184;5.942;2022-10-28T01:18:57;7;;;6;;
15504;SDS011;7854;52.184;5.942;2022-10-28T01:21:14;6;;;6;;
15504;SDS011;7854;52.184;5.942;2022-10-28T01:23:25;7;;;5;;
15504;SDS011;7854;52.184;5.942;2022-10-28T01:25:44;5;;;5;;
15504;SDS011;7854;52.184;5.942;2022-10-28T01:28:00;7;;;6;;
15504;SDS011;7854;52.184;5.942;2022-10-28T01:30:07;9;;;6;;
15504;SDS011;7854;52.184;5.942;2022-10-28T01:32:22;7;;;6;;
15504;SDS011;7854;52.184;5.942;2022-10-28T01:34:36;6;;;5;;
15504;SDS011;7854;52.184;5.942;2022-10-28T01:36:53;8;;;6;;
15504;SDS011;7854;52.184;5.942;2022-10-28T01:39:08;6;;;6;;
15504;SDS011;7854;52.184;5.942;2022-10-28T01:41:20;8;;;5;;
15504;SDS011;7854;52.184;5.942;2022-10-28T01:43:34;6;;;6;;
15504;SDS011;7854;52.184;5.942;2022-10-28T01:45:49;9;;;8;;
15504;SDS011;7854;52.184;5.942;2022-10-28T01:48:03;6;;;6;;
15504;SDS011;7854;52.184;5.942;2022-10-28T01:50:17;11;;;7;;
15504;SDS011;7854;52.184;5.942;2022-10-28T01:52:31;6;;;6;;
15504;SDS011;7854;52.184;5.942;2022-10-28T01:54:47;14;;;7;;
15504;SDS011;7854;52.184;5.942;2022-10-28T01:57:00;5;;;5;;
15504;SDS011;7854;52.184;5.942;2022-10-28T01:59:16;7;;;6;;
15504;SDS011;7854;52.184;5.942;2022-10-28T02:01:29;12;;;8;;
15504;SDS011;7854;52.184;5.942;2022-10-28T02:03:44;9;;;8;;
15504;SDS011;7854;52.184;5.942;2022-10-28T02:05:57;7;;;5;;
15504;SDS011;7854;52.184;5.942;2022-10-28T02:08:18;14;;;6;;
15504;SDS011;7854;52.184;5.942;2022-10-28T02:10:27;5;;;5;;
15504;SDS011;7854;52.184;5.942;2022-10-28T02:12:39;8;;;6;;
15504;SDS011;7854;52.184;5.942;2022-10-28T02:14:59;8;;;7;;
15504;SDS011;7854;52.184;5.942;2022-10-28T02:17:10;8;;;7;;
15504;SDS011;7854;52.184;5.942;2022-10-28T02:19:25;6;;;6;;
15504;SDS011;7854;52.184;5.942;2022-10-28T02:21:40;13;;;6;;
15504;SDS011;7854;52.184;5.942;2022-10-28T02:23:54;9;;;8;;
15504;SDS011;7854;52.184;5.942;2022-10-28T02:26:08;6;;;6;;
15504;SDS011;7854;52.184;5.942;2022-10-28T02:28:22;7;;;6;;
15504;SDS011;7854;52.184;5.942;2022-10-28T02:30:37;8;;;7;;
15504;SDS011;7854;52.184;5.942;2022-10-28T02:32:51;8;;;7;;
15504;SDS011;7854;52.184;5.942;2022-10-28T02:35:05;9;;;7;;
15504;SDS011;7854;52.184;5.942;2022-10-28T02:37:19;7;;;7;;
15504;SDS011;7854;52.184;5.942;2022-10-28T02:39:35;6;;;6;;
15504;SDS011;7854;52.184;5.942;2022-10-28T02:41:48;6;;;5;;
15504;SDS011;7854;52.184;5.942;2022-10-28T02:44:05;7;;;6;;
15504;SDS011;7854;52.184;5.942;2022-10-28T02:46:17;8;;;7;;
15504;SDS011;7854;52.184;5.942;2022-10-28T02:48:32;8;;;7;;
15504;SDS011;7854;52.184;5.942;2022-10-28T02:50:47;6;;;6;;
15504;SDS011;7854;52.184;5.942;2022-10-28T02:53:00;6;;;6;;
15504;SDS011;7854;52.184;5.942;2022-10-28T02:55:14;9;;;8;;
15504;SDS011;7854;52.184;5.942;2022-10-28T02:57:29;13;;;8;;
15504;SDS011;7854;52.184;5.942;2022-10-28T02:59:49;7;;;7;;
15504;SDS011;7854;52.184;5.942;2022-10-28T03:01:57;8;;;7;;
15504;SDS011;7854;52.184;5.942;2022-10-28T03:04:12;8;;;8;;
15504;SDS011;7854;52.184;5.942;2022-10-28T03:06:26;9;;;8;;
15504;SDS011;7854;52.184;5.942;2022-10-28T03:08:41;9;;;8;;
15504;SDS011;7854;52.184;5.942;2022-10-28T03:13:10;9;;;8;;
15504;SDS011;7854;52.184;5.942;2022-10-28T03:15:24;8;;;7;;
15504;SDS011;7854;52.184;5.942;2022-10-28T03:17:38;16;;;10;;
15504;SDS011;7854;52.184;5.942;2022-10-28T03:19:53;12;;;10;;
15504;SDS011;7854;52.184;5.942;2022-10-28T03:22:07;8;;;7;;
15504;SDS011;7854;52.184;5.942;2022-10-28T03:24:22;11;;;8;;
15504;SDS011;7854;52.184;5.942;2022-10-28T03:26:36;9;;;8;;
15504;SDS011;7854;52.184;5.942;2022-10-28T03:28:51;16;;;8;;
15504;SDS011;7854;52.184;5.942;2022-10-28T03:31:05;9;;;8;;
15504;SDS011;7854;52.184;5.942;2022-10-28T03:33:19;12;;;9;;
15504;SDS011;7854;52.184;5.942;2022-10-28T03:35:34;17;;;8;;
15504;SDS011;7854;52.184;5.942;2022-10-28T03:37:49;11;;;8;;
15504;SDS011;7854;52.184;5.942;2022-10-28T03:40:03;12;;;8;;
15504;SDS011;7854;52.184;5.942;2022-10-28T03:42:18;15;;;7;;
15504;SDS011;7854;52.184;5.942;2022-10-28T03:44:32;9;;;8;;
15504;SDS011;7854;52.184;5.942;2022-10-28T03:46:46;10;;;9;;
15504;SDS011;7854;52.184;5.942;2022-10-28T03:49:01;17;;;7;;
15504;SDS011;7854;52.184;5.942;2022-10-28T03:51:15;11;;;9;;
15504;SDS011;7854;52.184;5.942;2022-10-28T03:53:30;13;;;8;;
15504;SDS011;7854;52.184;5.942;2022-10-28T03:55:49;8;;;7;;
15504;SDS011;7854;52.184;5.942;2022-10-28T03:57:59;7;;;6;;
15504;SDS011;7854;52.184;5.942;2022-10-28T04:00:14;12;;;6;;
15504;SDS011;7854;52.184;5.942;2022-10-28T04:02:27;10;;;8;;
15504;SDS011;7854;52.184;5.942;2022-10-28T04:04:42;10;;;6;;
15504;SDS011;7854;52.184;5.942;2022-10-28T04:06:56;8;;;6;;
15504;SDS011;7854;52.184;5.942;2022-10-28T04:09:11;9;;;6;;
15504;SDS011;7854;52.184;5.942;2022-10-28T04:11:25;5;;;4;;
15504;SDS011;7854;52.184;5.942;2022-10-28T04:13:39;6;;;5;;
15504;SDS011;7854;52.184;5.942;2022-10-28T04:15:54;12;;;6;;
15504;SDS011;7854;52.184;5.942;2022-10-28T04:18:09;7;;;5;;
15504;SDS011;7854;52.184;5.942;2022-10-28T04:20:23;7;;;5;;
15504;SDS011;7854;52.184;5.942;2022-10-28T04:22:37;8;;;5;;
15504;SDS011;7854;52.184;5.942;2022-10-28T04:24:52;5;;;4;;
15504;SDS011;7854;52.184;5.942;2022-10-28T04:27:06;7;;;5;;
15504;SDS011;7854;52.184;5.942;2022-10-28T04:29:20;10;;;4;;
15504;SDS011;7854;52.184;5.942;2022-10-28T04:31:34;8;;;4;;
15504;SDS011;7854;52.184;5.942;2022-10-28T04:33:48;5;;;3;;
15504;SDS011;7854;52.184;5.942;2022-10-28T04:36:03;5;;;3;;
15504;SDS011;7854;52.184;5.942;2022-10-28T04:38:18;9;;;3;;
15504;SDS011;7854;52.184;5.942;2022-10-28T04:40:32;6;;;3;;
15504;SDS011;7854;52.184;5.942;2022-10-28T04:42:47;5;;;3;;
15504;SDS011;7854;52.184;5.942;2022-10-28T04:45:02;4;;;4;;
15504;SDS011;7854;52.184;5.942;2022-10-28T04:47:15;4;;;3;;
15504;SDS011;7854;52.184;5.942;2022-10-28T04:49:30;6;;;5;;
15504;SDS011;7854;52.184;5.942;2022-10-28T04:51:44;12;;;4;;
15504;SDS011;7854;52.184;5.942;2022-10-28T04:53:59;7;;;4;;
15504;SDS011;7854;52.184;5.942;2022-10-28T04:56:13;16;;;4;;
15504;SDS011;7854;52.184;5.942;2022-10-28T04:58:27;8;;;4;;
15504;SDS011;7854;52.184;5.942;2022-10-28T05:00:42;4;;;3;;
15504;SDS011;7854;52.184;5.942;2022-10-28T05:02:59;6;;;5;;
15504;SDS011;7854;52.184;5.942;2022-10-28T05:05:11;4;;;3;;
15504;SDS011;7854;52.184;5.942;2022-10-28T05:07:25;5;;;3;;
15504;SDS011;7854;52.184;5.942;2022-10-28T05:09:40;5;;;4;;
15504;SDS011;7854;52.184;5.942;2022-10-28T05:11:54;6;;;4;;
15504;SDS011;7854;52.184;5.942;2022-10-28T05:14:09;9;;;3;;
15504;SDS011;7854;52.184;5.942;2022-10-28T05:16:23;4;;;3;;
15504;SDS011;7854;52.184;5.942;2022-10-28T05:18:38;6;;;4;;
15504;SDS011;7854;52.184;5.942;2022-10-28T05:20:52;6;;;4;;
15504;SDS011;7854;52.184;5.942;2022-10-28T05:23:06;8;;;4;;
15504;SDS011;7854;52.184;5.942;2022-10-28T05:25:21;5;;;4;;
15504;SDS011;7854;52.184;5.942;2022-10-28T05:27:35;9;;;4;;
15504;SDS011;7854;52.184;5.942;2022-10-28T05:29:50;8;;;3;;
15504;SDS011;7854;52.184;5.942;2022-10-28T05:32:04;20;;;3;;
15504;SDS011;7854;52.184;5.942;2022-10-28T05:34:18;5;;;3;;
15504;SDS011;7854;52.184;5.942;2022-10-28T05:36:33;5;;;3;;
15504;SDS011;7854;52.184;5.942;2022-10-28T05:38:48;4;;;3;;
15504;SDS011;7854;52.184;5.942;2022-10-28T05:41:02;11;;;3;;
15504;SDS011;7854;52.184;5.942;2022-10-28T05:43:17;9;;;4;;
15504;SDS011;7854;52.184;5.942;2022-10-28T05:45:31;12;;;4;;
15504;SDS011;7854;52.184;5.942;2022-10-28T05:47:46;9;;;4;;
15504;SDS011;7854;52.184;5.942;2022-10-28T05:50:00;5;;;3;;
15504;SDS011;7854;52.184;5.942;2022-10-28T05:52:14;3;;;2;;
15504;SDS011;7854;52.184;5.942;2022-10-28T05:56:43;4;;;4;;
15504;SDS011;7854;52.184;5.942;2022-10-28T05:58:57;4;;;3;;
15504;SDS011;7854;52.184;5.942;2022-10-28T06:01:11;3;;;3;;
15504;SDS011;7854;52.184;5.942;2022-10-28T06:03:26;12;;;3;;
15504;SDS011;7854;52.184;5.942;2022-10-28T06:05:41;4;;;3;;
15504;SDS011;7854;52.184;5.942;2022-10-28T06:07:55;3;;;3;;
15504;SDS011;7854;52.184;5.942;2022-10-28T06:10:09;4;;;3;;
15504;SDS011;7854;52.184;5.942;2022-10-28T06:12:23;7;;;3;;
15504;SDS011;7854;52.184;5.942;2022-10-28T06:14:38;9;;;3;;
15504;SDS011;7854;52.184;5.942;2022-10-28T06:16:52;14;;;3;;
15504;SDS011;7854;52.184;5.942;2022-10-28T06:19:07;5;;;3;;
15504;SDS011;7854;52.184;5.942;2022-10-28T06:21:21;4;;;3;;
15504;SDS011;7854;52.184;5.942;2022-10-28T06:23:35;14;;;3;;
15504;SDS011;7854;52.184;5.942;2022-10-28T06:25:50;3;;;3;;
15504;SDS011;7854;52.184;5.942;2022-10-28T06:28:05;5;;;4;;
15504;SDS011;7854;52.184;5.942;2022-10-28T06:30:19;5;;;3;;
15504;SDS011;7854;52.184;5.942;2022-10-28T06:32:33;10;;;3;;
15504;SDS011;7854;52.184;5.942;2022-10-28T06:34:48;5;;;3;;
15504;SDS011;7854;52.184;5.942;2022-10-28T06:37:02;4;;;3;;
15504;SDS011;7854;52.184;5.942;2022-10-28T06:39:17;11;;;4;;
15504;SDS011;7854;52.184;5.942;2022-10-28T06:41:31;16;;;4;;
15504;SDS011;7854;52.184;5.942;2022-10-28T06:43:46;15;;;4;;
15504;SDS011;7854;52.184;5.942;2022-10-28T06:46:00;6;;;3;;
15504;SDS011;7854;52.184;5.942;2022-10-28T06:48:13;10;;;3;;
15504;SDS011;7854;52.184;5.942;2022-10-28T06:50:28;11;;;6;;
15504;SDS011;7854;52.184;5.942;2022-10-28T06:52:42;5;;;3;;
15504;SDS011;7854;52.184;5.942;2022-10-28T06:54:57;6;;;4;;
15504;SDS011;7854;52.184;5.942;2022-10-28T06:57:11;4;;;3;;
15504;SDS011;7854;52.184;5.942;2022-10-28T06:59:25;6;;;3;;
15504;SDS011;7854;52.184;5.942;2022-10-28T07:01:40;7;;;3;;
15504;SDS011;7854;52.184;5.942;2022-10-28T07:03:55;6;;;3;;
15504;SDS011;7854;52.184;5.942;2022-10-28T07:06:09;4;;;3;;
15504;SDS011;7854;52.184;5.942;2022-10-28T07:08:24;17;;;4;;
15504;SDS011;7854;52.184;5.942;2022-10-28T07:10:38;3;;;3;;
15504;SDS011;7854;52.184;5.942;2022-10-28T07:12:52;4;;;4;;
15504;SDS011;7854;52.184;5.942;2022-10-28T07:15:08;5;;;4;;
15504;SDS011;7854;52.184;5.942;2022-10-28T07:17:21;8;;;3;;
15504;SDS011;7854;52.184;5.942;2022-10-28T07:19:36;4;;;4;;
15504;SDS011;7854;52.184;5.942;2022-10-28T07:21:50;7;;;4;;
15504;SDS011;7854;52.184;5.942;2022-10-28T07:24:05;4;;;3;;
15504;SDS011;7854;52.184;5.942;2022-10-28T07:26:19;7;;;3;;
15504;SDS011;7854;52.184;5.942;2022-10-28T07:28:34;4;;;3;;
15504;SDS011;7854;52.184;5.942;2022-10-28T07:30:48;7;;;3;;
15504;SDS011;7854;52.184;5.942;2022-10-28T07:33:03;6;;;3;;
15504;SDS011;7854;52.184;5.942;2022-10-28T07:35:17;4;;;3;;
15504;SDS011;7854;52.184;5.942;2022-10-28T07:37:31;4;;;3;;
15504;SDS011;7854;52.184;5.942;2022-10-28T07:39:46;17;;;3;;
15504;SDS011;7854;52.184;5.942;2022-10-28T07:42:00;8;;;3;;
15504;SDS011;7854;52.184;5.942;2022-10-28T07:44:15;8;;;4;;
15504;SDS011;7854;52.184;5.942;2022-10-28T07:46:31;6;;;3;;
15504;SDS011;7854;52.184;5.942;2022-10-28T07:48:44;6;;;4;;
15504;SDS011;7854;52.184;5.942;2022-10-28T07:50:59;3;;;3;;
15504;SDS011;7854;52.184;5.942;2022-10-28T07:53:12;3;;;2;;
15504;SDS011;7854;52.184;5.942;2022-10-28T07:55:27;7;;;3;;
15504;SDS011;7854;52.184;5.942;2022-10-28T07:57:42;4;;;3;;
15504;SDS011;7854;52.184;5.942;2022-10-28T07:59:55;4;;;2;;
15504;SDS011;7854;52.184;5.942;2022-10-28T08:02:11;6;;;3;;
15504;SDS011;7854;52.184;5.942;2022-10-28T08:04:27;6;;;3;;
15504;SDS011;7854;52.184;5.942;2022-10-28T08:06:39;4;;;4;;
15504;SDS011;7854;52.184;5.942;2022-10-28T08:08:54;6;;;3;;
15504;SDS011;7854;52.184;5.942;2022-10-28T08:11:08;4;;;3;;
15504;SDS011;7854;52.184;5.942;2022-10-28T08:13:23;6;;;3;;
15504;SDS011;7854;52.184;5.942;2022-10-28T08:15:36;3;;;3;;
15504;SDS011;7854;52.184;5.942;2022-10-28T08:17:51;12;;;3;;
15504;SDS011;7854;52.184;5.942;2022-10-28T08:20:06;6;;;3;;
15504;SDS011;7854;52.184;5.942;2022-10-28T08:22:20;12;;;4;;
15504;SDS011;7854;52.184;5.942;2022-10-28T08:24:35;11;;;2;;
15504;SDS011;7854;52.184;5.942;2022-10-28T08:26:49;5;;;3;;
15504;SDS011;7854;52.184;5.942;2022-10-28T08:31:18;5;;;3;;
15504;SDS011;7854;52.184;5.942;2022-10-28T08:33:32;4;;;3;;
15504;SDS011;7854;52.184;5.942;2022-10-28T08:35:48;8;;;4;;
15504;SDS011;7854;52.184;5.942;2022-10-28T08:38:02;2;;;2;;
15504;SDS011;7854;52.184;5.942;2022-10-28T08:40:16;5;;;3;;
15504;SDS011;7854;52.184;5.942;2022-10-28T08:42:33;3;;;2;;
15504;SDS011;7854;52.184;5.942;2022-10-28T08:44:48;3;;;2;;
15504;SDS011;7854;52.184;5.942;2022-10-28T08:47:02;7;;;4;;
15504;SDS011;7854;52.184;5.942;2022-10-28T08:49:15;5;;;3;;
15504;SDS011;7854;52.184;5.942;2022-10-28T08:51:29;5;;;3;;
15504;SDS011;7854;52.184;5.942;2022-10-28T08:53:43;8;;;2;;
15504;SDS011;7854;52.184;5.942;2022-10-28T08:55:58;11;;;3;;
15504;SDS011;7854;52.184;5.942;2022-10-28T08:58:12;18;;;5;;
15504;SDS011;7854;52.184;5.942;2022-10-28T09:00:27;10;;;3;;
15504;SDS011;7854;52.184;5.942;2022-10-28T09:02:44;11;;;3;;
15504;SDS011;7854;52.184;5.942;2022-10-28T09:04:55;9;;;3;;
15504;SDS011;7854;52.184;5.942;2022-10-28T09:07:10;7;;;3;;
15504;SDS011;7854;52.184;5.942;2022-10-28T09:09:23;14;;;4;;
15504;SDS011;7854;52.184;5.942;2022-10-28T09:11:41;3;;;2;;
15504;SDS011;7854;52.184;5.942;2022-10-28T09:13:55;5;;;3;;
15504;SDS011;7854;52.184;5.942;2022-10-28T09:16:08;2;;;2;;
15504;SDS011;7854;52.184;5.942;2022-10-28T09:18:21;5;;;2;;
15504;SDS011;7854;52.184;5.942;2022-10-28T09:20:38;12;;;3;;
15504;SDS011;7854;52.184;5.942;2022-10-28T09:22:52;11;;;2;;
15504;SDS011;7854;52.184;5.942;2022-10-28T09:25:04;13;;;3;;
15504;SDS011;7854;52.184;5.942;2022-10-28T09:27:22;13;;;2;;
15504;SDS011;7854;52.184;5.942;2022-10-28T09:29:35;11;;;3;;
15504;SDS011;7854;52.184;5.942;2022-10-28T09:31:48;9;;;2;;
15504;SDS011;7854;52.184;5.942;2022-10-28T09:36:17;5;;;2;;
15504;SDS011;7854;52.184;5.942;2022-10-28T09:38:30;10;;;2;;
15504;SDS011;7854;52.184;5.942;2022-10-28T09:40:44;5;;;2;;
15504;SDS011;7854;52.184;5.942;2022-10-28T09:43:01;8;;;2;;
15504;SDS011;7854;52.184;5.942;2022-10-28T09:45:16;10;;;3;;
15504;SDS011;7854;52.184;5.942;2022-10-28T09:47:29;14;;;3;;
15504;SDS011;7854;52.184;5.942;2022-10-28T09:51:58;5;;;2;;
15504;SDS011;7854;52.184;5.942;2022-10-28T09:56:25;8;;;3;;
15504;SDS011;7854;52.184;5.942;2022-10-28T09:58:45;3;;;2;;
15504;SDS011;7854;52.184;5.942;2022-10-28T10:00:59;2;;;2;;
15504;SDS011;7854;52.184;5.942;2022-10-28T10:03:19;5;;;2;;
15504;SDS011;7854;52.184;5.942;2022-10-28T10:05:41;12;;;2;;
15504;SDS011;7854;52.184;5.942;2022-10-28T10:08:02;3;;;2;;
15504;SDS011;7854;52.184;5.942;2022-10-28T10:10:22;3;;;2;;
15504;SDS011;7854;52.184;5.942;2022-10-28T10:12:41;9;;;3;;
15504;SDS011;7854;52.184;5.942;2022-10-28T10:14:55;19;;;2;;
15504;SDS011;7854;52.184;5.942;2022-10-28T10:17:11;3;;;2;;
15504;SDS011;7854;52.184;5.942;2022-10-28T10:19:24;5;;;2;;
15504;SDS011;7854;52.184;5.942;2022-10-28T10:21:40;2;;;2;;
15504;SDS011;7854;52.184;5.942;2022-10-28T10:23:53;11;;;2;;
15504;SDS011;7854;52.184;5.942;2022-10-28T10:26:08;4;;;3;;
15504;SDS011;7854;52.184;5.942;2022-10-28T10:28:22;11;;;3;;
15504;SDS011;7854;52.184;5.942;2022-10-28T10:30:37;4;;;2;;
15504;SDS011;7854;52.184;5.942;2022-10-28T10:32:51;5;;;3;;
15504;SDS011;7854;52.184;5.942;2022-10-28T10:35:13;8;;;3;;
15504;SDS011;7854;52.184;5.942;2022-10-28T10:39:35;3;;;3;;
15504;SDS011;7854;52.184;5.942;2022-10-28T10:41:48;13;;;3;;
15504;SDS011;7854;52.184;5.942;2022-10-28T10:44:14;18;;;4;;
15504;SDS011;7854;52.184;5.942;2022-10-28T10:46:18;7;;;2;;
15504;SDS011;7854;52.184;5.942;2022-10-28T10:48:32;7;;;3;;
15504;SDS011;7854;52.184;5.942;2022-10-28T10:50:46;8;;;3;;
15504;SDS011;7854;52.184;5.942;2022-10-28T10:53:01;18;;;3;;
15504;SDS011;7854;52.184;5.942;2022-10-28T10:55:18;8;;;3;;
15504;SDS011;7854;52.184;5.942;2022-10-28T10:57:30;7;;;3;;
15504;SDS011;7854;52.184;5.942;2022-10-28T10:59:44;9;;;4;;
15504;SDS011;7854;52.184;5.942;2022-10-28T11:01:58;3;;;2;;
15504;SDS011;7854;52.184;5.942;2022-10-28T11:04:14;8;;;3;;
15504;SDS011;7854;52.184;5.942;2022-10-28T11:06:28;7;;;2;;
15504;SDS011;7854;52.184;5.942;2022-10-28T11:08:42;7;;;2;;
15504;SDS011;7854;52.184;5.942;2022-10-28T11:11:01;9;;;3;;
15504;SDS011;7854;52.184;5.942;2022-10-28T11:13:22;14;;;3;;
15504;SDS011;7854;52.184;5.942;2022-10-28T11:15:26;8;;;3;;
15504;SDS011;7854;52.184;5.942;2022-10-28T11:17:40;6;;;2;;
15504;SDS011;7854;52.184;5.942;2022-10-28T11:19:55;8;;;4;;
15504;SDS011;7854;52.184;5.942;2022-10-28T11:22:11;9;;;3;;
15504;SDS011;7854;52.184;5.942;2022-10-28T11:24:27;5;;;3;;
15504;SDS011;7854;52.184;5.942;2022-10-28T11:26:39;18;;;3;;
15504;SDS011;7854;52.184;5.942;2022-10-28T11:28:57;6;;;3;;
15504;SDS011;7854;52.184;5.942;2022-10-28T11:31:14;14;;;3;;
15504;SDS011;7854;52.184;5.942;2022-10-28T11:33:23;7;;;4;;
15504;SDS011;7854;52.184;5.942;2022-10-28T11:35:38;5;;;3;;
15504;SDS011;7854;52.184;5.942;2022-10-28T11:40:07;7;;;2;;
15504;SDS011;7854;52.184;5.942;2022-10-28T11:42:21;14;;;3;;
15504;SDS011;7854;52.184;5.942;2022-10-28T11:44:37;4;;;3;;
15504;SDS011;7854;52.184;5.942;2022-10-28T11:46:49;13;;;4;;
15504;SDS011;7854;52.184;5.942;2022-10-28T11:49:08;8;;;4;;
15504;SDS011;7854;52.184;5.942;2022-10-28T11:51:19;11;;;3;;
15504;SDS011;7854;52.184;5.942;2022-10-28T11:53:35;9;;;4;;
15504;SDS011;7854;52.184;5.942;2022-10-28T11:55:46;7;;;4;;
15504;SDS011;7854;52.184;5.942;2022-10-28T11:58:02;6;;;3;;
15504;SDS011;7854;52.184;5.942;2022-10-28T12:00:21;13;;;3;;
15504;SDS011;7854;52.184;5.942;2022-10-28T12:02:34;3;;;3;;
15504;SDS011;7854;52.184;5.942;2022-10-28T12:04:46;7;;;3;;
15504;SDS011;7854;52.184;5.942;2022-10-28T12:07:01;38;;;6;;
15504;SDS011;7854;52.184;5.942;2022-10-28T12:09:14;6;;;4;;
15504;SDS011;7854;52.184;5.942;2022-10-28T12:11:29;4;;;2;;
15504;SDS011;7854;52.184;5.942;2022-10-28T12:13:43;7;;;3;;
15504;SDS011;7854;52.184;5.942;2022-10-28T12:15:56;4;;;2;;
15504;SDS011;7854;52.184;5.942;2022-10-28T12:18:13;5;;;2;;
15504;SDS011;7854;52.184;5.942;2022-10-28T12:22:42;5;;;3;;
15504;SDS011;7854;52.184;5.942;2022-10-28T12:24:53;6;;;3;;
15504;SDS011;7854;52.184;5.942;2022-10-28T12:27:10;9;;;3;;
15504;SDS011;7854;52.184;5.942;2022-10-28T12:29:23;8;;;3;;
15504;SDS011;7854;52.184;5.942;2022-10-28T12:31:37;6;;;3;;
15504;SDS011;7854;52.184;5.942;2022-10-28T12:33:52;8;;;3;;
15504;SDS011;7854;52.184;5.942;2022-10-28T12:38:22;8;;;3;;
15504;SDS011;7854;52.184;5.942;2022-10-28T12:40:34;4;;;2;;
15504;SDS011;7854;52.184;5.942;2022-10-28T12:45:06;18;;;2;;
15504;SDS011;7854;52.184;5.942;2022-10-28T12:47:18;4;;;2;;
15504;SDS011;7854;52.184;5.942;2022-10-28T12:49:40;15;;;4;;
15504;SDS011;7854;52.184;5.942;2022-10-28T12:51:57;13;;;3;;
15504;SDS011;7854;52.184;5.942;2022-10-28T12:54:20;11;;;3;;
15504;SDS011;7854;52.184;5.942;2022-10-28T12:56:39;8;;;3;;
15504;SDS011;7854;52.184;5.942;2022-10-28T12:58:59;12;;;3;;
15504;SDS011;7854;52.184;5.942;2022-10-28T13:01:18;17;;;3;;
15504;SDS011;7854;52.184;5.942;2022-10-28T13:03:33;7;;;3;;
15504;SDS011;7854;52.184;5.942;2022-10-28T13:10:20;4;;;3;;
15504;SDS011;7854;52.184;5.942;2022-10-28T13:12:37;7;;;2;;
15504;SDS011;7854;52.184;5.942;2022-10-28T13:14:52;8;;;2;;
15504;SDS011;7854;52.184;5.942;2022-10-28T13:17:04;10;;;2;;
15504;SDS011;7854;52.184;5.942;2022-10-28T13:19:21;5;;;2;;
15504;SDS011;7854;52.184;5.942;2022-10-28T13:21:30;4;;;2;;
15504;SDS011;7854;52.184;5.942;2022-10-28T13:23:43;10;;;2;;
15504;SDS011;7854;52.184;5.942;2022-10-28T13:25:58;7;;;3;;
15504;SDS011;7854;52.184;5.942;2022-10-28T13:28:11;5;;;3;;
15504;SDS011;7854;52.184;5.942;2022-10-28T13:30:25;7;;;4;;
15504;SDS011;7854;52.184;5.942;2022-10-28T13:32:40;11;;;3;;
15504;SDS011;7854;52.184;5.942;2022-10-28T13:34:55;12;;;3;;
15504;SDS011;7854;52.184;5.942;2022-10-28T13:37:15;11;;;2;;
15504;SDS011;7854;52.184;5.942;2022-10-28T13:39:24;7;;;2;;
15504;SDS011;7854;52.184;5.942;2022-10-28T13:41:39;5;;;2;;
15504;SDS011;7854;52.184;5.942;2022-10-28T13:44:12;10;;;4;;
15504;SDS011;7854;52.184;5.942;2022-10-28T13:46:07;5;;;2;;
15504;SDS011;7854;52.184;5.942;2022-10-28T13:48:45;4;;;3;;
15504;SDS011;7854;52.184;5.942;2022-10-28T13:50:36;8;;;3;;
15504;SDS011;7854;52.184;5.942;2022-10-28T13:55:21;3;;;2;;
15504;SDS011;7854;52.184;5.942;2022-10-28T13:57:21;5;;;3;;
15504;SDS011;7854;52.184;5.942;2022-10-28T13:59:38;6;;;3;;
15504;SDS011;7854;52.184;5.942;2022-10-28T14:01:50;12;;;3;;
15504;SDS011;7854;52.184;5.942;2022-10-28T14:04:03;9;;;2;;
15504;SDS011;7854;52.184;5.942;2022-10-28T14:06:26;8;;;3;;
15504;SDS011;7854;52.184;5.942;2022-10-28T14:08:32;4;;;3;;
15504;SDS011;7854;52.184;5.942;2022-10-28T14:10:54;3;;;2;;
15504;SDS011;7854;52.184;5.942;2022-10-28T14:13:01;11;;;3;;
15504;SDS011;7854;52.184;5.942;2022-10-28T14:15:17;12;;;4;;
15504;SDS011;7854;52.184;5.942;2022-10-28T14:17:33;6;;;3;;
15504;SDS011;7854;52.184;5.942;2022-10-28T14:19:46;6;;;3;;
15504;SDS011;7854;52.184;5.942;2022-10-28T14:21:59;6;;;3;;
15504;SDS011;7854;52.184;5.942;2022-10-28T14:24:13;3;;;3;;
15504;SDS011;7854;52.184;5.942;2022-10-28T14:26:27;5;;;3;;
15504;SDS011;7854;52.184;5.942;2022-10-28T14:28:50;11;;;3;;
15504;SDS011;7854;52.184;5.942;2022-10-28T14:31:18;18;;;3;;
15504;SDS011;7854;52.184;5.942;2022-10-28T14:33:17;17;;;3;;
15504;SDS011;7854;52.184;5.942;2022-10-28T14:35:27;20;;;6;;
15504;SDS011;7854;52.184;5.942;2022-10-28T14:37:46;7;;;2;;
15504;SDS011;7854;52.184;5.942;2022-10-28T14:39:58;7;;;3;;
15504;SDS011;7854;52.184;5.942;2022-10-28T14:42:13;3;;;3;;
15504;SDS011;7854;52.184;5.942;2022-10-28T14:44:28;6;;;3;;
15504;SDS011;7854;52.184;5.942;2022-10-28T14:46:43;3;;;2;;
15504;SDS011;7854;52.184;5.942;2022-10-28T14:48:51;12;;;3;;
15504;SDS011;7854;52.184;5.942;2022-10-28T14:51:07;5;;;3;;
15504;SDS011;7854;52.184;5.942;2022-10-28T14:53:22;10;;;4;;
15504;SDS011;7854;52.184;5.942;2022-10-28T14:55:35;11;;;3;;
15504;SDS011;7854;52.184;5.942;2022-10-28T14:57:49;4;;;2;;
15504;SDS011;7854;52.184;5.942;2022-10-28T15:00:07;11;;;3;;
15504;SDS011;7854;52.184;5.942;2022-10-28T15:02:19;5;;;3;;
15504;SDS011;7854;52.184;5.942;2022-10-28T15:04:33;8;;;2;;
15504;SDS011;7854;52.184;5.942;2022-10-28T15:06:48;4;;;3;;
15504;SDS011;7854;52.184;5.942;2022-10-28T15:09:06;10;;;4;;
15504;SDS011;7854;52.184;5.942;2022-10-28T15:11:16;11;;;2;;
15504;SDS011;7854;52.184;5.942;2022-10-28T15:13:30;8;;;3;;
15504;SDS011;7854;52.184;5.942;2022-10-28T15:15:52;7;;;3;;
15504;SDS011;7854;52.184;5.942;2022-10-28T15:17:59;9;;;3;;
15504;SDS011;7854;52.184;5.942;2022-10-28T15:20:18;7;;;3;;
15504;SDS011;7854;52.184;5.942;2022-10-28T15:22:29;9;;;3;;
15504;SDS011;7854;52.184;5.942;2022-10-28T15:24:50;8;;;3;;
15504;SDS011;7854;52.184;5.942;2022-10-28T15:26:56;19;;;4;;
15504;SDS011;7854;52.184;5.942;2022-10-28T15:29:10;8;;;5;;
15504;SDS011;7854;52.184;5.942;2022-10-28T15:31:25;13;;;4;;
15504;SDS011;7854;52.184;5.942;2022-10-28T15:33:40;8;;;3;;